sensor_id;sensor_type;location;lat;lon;timestamp;pressure;altitude;pressure_sealevel;temperature;humidity
6423;BME280;3244;42.708;23.288;2023-05-12T00:02:16;95285.66;;;10.73;72.47
6423;BME280;3244;42.708;23.288;2023-05-12T00:04:43;95283.28;;;10.67;71.62
6423;BME280;3244;42.708;23.288;2023-05-12T00:07:11;95288.63;;;10.59;72.37
6423;BME280;3244;42.708;23.288;2023-05-12T00:09:37;95287.09;;;10.53;71.78
6423;BME280;3244;42.708;23.288;2023-05-12T00:12:06;95285.28;;;10.57;72.38
6423;BME280;3244;42.708;23.288;2023-05-12T00:14:33;95280.78;;;10.65;71.99
6423;BME280;3244;42.708;23.288;2023-05-12T00:17:02;95281.56;;;10.67;71.07
6423;BME280;3244;42.708;23.288;2023-05-12T00:19:28;95281.13;;;10.54;71.00
6423;BME280;3244;42.708;23.288;2023-05-12T00:21:55;95283.66;;;10.54;71.52
6423;BME280;3244;42.708;23.288;2023-05-12T00:24:23;95283.88;;;10.47;71.21
6423;BME280;3244;42.708;23.288;2023-05-12T00:26:50;95289.53;;;10.56;71.03
6423;BME280;3244;42.708;23.288;2023-05-12T00:29:17;95288.00;;;10.51;70.96
6423;BME280;3244;42.708;23.288;2023-05-12T00:31:43;95287.53;;;10.38;71.26
6423;BME280;3244;42.708;23.288;2023-05-12T00:34:10;95283.28;;;10.39;71.39
6423;BME280;3244;42.708;23.288;2023-05-12T00:36:37;95291.56;;;10.45;71.54
6423;BME280;3244;42.708;23.288;2023-05-12T00:39:04;95285.94;;;10.36;71.90
6423;BME280;3244;42.708;23.288;2023-05-12T00:41:32;95284.44;;;10.29;72.51
6423;BME280;3244;42.708;23.288;2023-05-12T00:43:58;95290.81;;;10.12;72.84
6423;BME280;3244;42.708;23.288;2023-05-12T00:46:25;95293.00;;;10.25;73.45
6423;BME280;3244;42.708;23.288;2023-05-12T00:48:52;95293.28;;;10.14;73.84
6423;BME280;3244;42.708;23.288;2023-05-12T00:51:19;95292.22;;;10.22;74.29
6423;BME280;3244;42.708;23.288;2023-05-12T00:53:47;95291.38;;;10.22;74.15
6423;BME280;3244;42.708;23.288;2023-05-12T00:56:14;95300.09;;;10.13;74.45
6423;BME280;3244;42.708;23.288;2023-05-12T00:58:43;95297.91;;;10.00;75.21
6423;BME280;3244;42.708;23.288;2023-05-12T01:01:10;95305.03;;;9.87;75.78
6423;BME280;3244;42.708;23.288;2023-05-12T01:03:37;95297.38;;;9.88;76.46
6423;BME280;3244;42.708;23.288;2023-05-12T01:06:09;95301.03;;;9.78;76.79
6423;BME280;3244;42.708;23.288;2023-05-12T01:08:37;95312.03;;;9.79;76.94
6423;BME280;3244;42.708;23.288;2023-05-12T01:11:05;95301.09;;;9.75;77.64
6423;BME280;3244;42.708;23.288;2023-05-12T01:13:32;95306.19;;;9.75;77.71
6423;BME280;3244;42.708;23.288;2023-05-12T01:16:00;95303.69;;;9.74;78.78
6423;BME280;3244;42.708;23.288;2023-05-12T01:18:28;95307.44;;;9.61;79.53
6423;BME280;3244;42.708;23.288;2023-05-12T01:20:56;95306.78;;;9.52;79.77
6423;BME280;3244;42.708;23.288;2023-05-12T01:23:26;95306.88;;;9.49;79.68
6423;BME280;3244;42.708;23.288;2023-05-12T01:26:02;95306.88;;;9.49;81.40
6423;BME280;3244;42.708;23.288;2023-05-12T01:28:30;95312.16;;;9.40;81.61
6423;BME280;3244;42.708;23.288;2023-05-12T01:30:58;95303.75;;;9.40;82.10
6423;BME280;3244;42.708;23.288;2023-05-12T01:33:25;95311.69;;;9.26;82.60
6423;BME280;3244;42.708;23.288;2023-05-12T01:35:53;95316.59;;;9.32;83.35
6423;BME280;3244;42.708;23.288;2023-05-12T01:38:19;95305.78;;;9.26;83.04
6423;BME280;3244;42.708;23.288;2023-05-12T01:40:47;95312.75;;;9.16;82.85
6423;BME280;3244;42.708;23.288;2023-05-12T01:43:15;95300.00;;;9.19;83.61
6423;BME280;3244;42.708;23.288;2023-05-12T01:45:42;95308.59;;;9.15;84.27
6423;BME280;3244;42.708;23.288;2023-05-12T01:48:08;95311.88;;;9.17;84.75
6423;BME280;3244;42.708;23.288;2023-05-12T01:50:35;95313.88;;;9.06;83.74
6423;BME280;3244;42.708;23.288;2023-05-12T01:53:02;95314.75;;;9.03;84.76
6423;BME280;3244;42.708;23.288;2023-05-12T01:55:28;95314.06;;;8.97;84.63
6423;BME280;3244;42.708;23.288;2023-05-12T01:57:55;95313.41;;;8.90;85.58
6423;BME280;3244;42.708;23.288;2023-05-12T02:00:23;95307.44;;;8.91;85.91
6423;BME280;3244;42.708;23.288;2023-05-12T02:02:50;95310.91;;;8.89;85.76
6423;BME280;3244;42.708;23.288;2023-05-12T02:05:16;95307.66;;;8.82;86.73
6423;BME280;3244;42.708;23.288;2023-05-12T02:07:43;95311.06;;;8.81;86.85
6423;BME280;3244;42.708;23.288;2023-05-12T02:10:10;95311.97;;;8.78;87.92
6423;BME280;3244;42.708;23.288;2023-05-12T02:12:36;95309.28;;;8.84;87.74
6423;BME280;3244;42.708;23.288;2023-05-12T02:15:04;95304.28;;;8.81;88.38
6423;BME280;3244;42.708;23.288;2023-05-12T02:17:32;95305.03;;;8.86;87.79
6423;BME280;3244;42.708;23.288;2023-05-12T02:19:59;95301.06;;;8.75;88.21
6423;BME280;3244;42.708;23.288;2023-05-12T02:22:26;95313.56;;;8.82;88.07
6423;BME280;3244;42.708;23.288;2023-05-12T02:24:53;95314.44;;;8.81;88.74
6423;BME280;3244;42.708;23.288;2023-05-12T02:27:20;95317.16;;;8.72;88.41
6423;BME280;3244;42.708;23.288;2023-05-12T02:29:46;95302.81;;;8.71;88.42
6423;BME280;3244;42.708;23.288;2023-05-12T02:32:13;95302.25;;;8.60;88.66
6423;BME280;3244;42.708;23.288;2023-05-12T02:34:41;95301.50;;;8.55;88.42
6423;BME280;3244;42.708;23.288;2023-05-12T02:37:08;95300.84;;;8.47;88.20
6423;BME280;3244;42.708;23.288;2023-05-12T02:39:34;95301.75;;;8.43;88.21
6423;BME280;3244;42.708;23.288;2023-05-12T02:42:01;95302.47;;;8.49;89.00
6423;BME280;3244;42.708;23.288;2023-05-12T02:44:28;95302.56;;;8.45;88.71
6423;BME280;3244;42.708;23.288;2023-05-12T02:46:54;95306.31;;;8.26;89.01
6423;BME280;3244;42.708;23.288;2023-05-12T02:49:22;95302.72;;;8.39;90.12
6423;BME280;3244;42.708;23.288;2023-05-12T02:51:50;95307.91;;;8.31;89.82
6423;BME280;3244;42.708;23.288;2023-05-12T02:54:16;95307.13;;;8.28;90.67
6423;BME280;3244;42.708;23.288;2023-05-12T02:56:43;95303.91;;;8.19;90.59
6423;BME280;3244;42.708;23.288;2023-05-12T02:59:10;95311.59;;;8.16;90.76
6423;BME280;3244;42.708;23.288;2023-05-12T03:01:37;95309.88;;;8.17;91.62
6423;BME280;3244;42.708;23.288;2023-05-12T03:04:03;95314.91;;;8.18;91.88
6423;BME280;3244;42.708;23.288;2023-05-12T03:06:30;95312.31;;;8.22;91.85
6423;BME280;3244;42.708;23.288;2023-05-12T03:08:58;95312.41;;;8.17;91.12
6423;BME280;3244;42.708;23.288;2023-05-12T03:11:25;95313.97;;;8.23;91.48
6423;BME280;3244;42.708;23.288;2023-05-12T03:13:52;95310.63;;;8.20;90.94
6423;BME280;3244;42.708;23.288;2023-05-12T03:16:18;95318.22;;;8.20;91.31
6423;BME280;3244;42.708;23.288;2023-05-12T03:18:45;95313.22;;;8.17;91.74
6423;BME280;3244;42.708;23.288;2023-05-12T03:21:12;95320.09;;;8.14;91.21
6423;BME280;3244;42.708;23.288;2023-05-12T03:23:38;95318.25;;;8.19;91.29
6423;BME280;3244;42.708;23.288;2023-05-12T03:26:06;95320.75;;;8.20;91.67
6423;BME280;3244;42.708;23.288;2023-05-12T03:28:33;95316.53;;;8.21;91.59
6423;BME280;3244;42.708;23.288;2023-05-12T03:31:00;95323.19;;;8.27;92.23
6423;BME280;3244;42.708;23.288;2023-05-12T03:33:26;95313.94;;;8.24;91.74
6423;BME280;3244;42.708;23.288;2023-05-12T03:35:53;95323.78;;;8.41;91.86
6423;BME280;3244;42.708;23.288;2023-05-12T03:38:21;95328.56;;;8.53;91.11
6423;BME280;3244;42.708;23.288;2023-05-12T03:40:47;95331.38;;;8.41;90.66
6423;BME280;3244;42.708;23.288;2023-05-12T03:43:18;95330.59;;;8.37;90.39
6423;BME280;3244;42.708;23.288;2023-05-12T03:45:45;95339.97;;;8.34;91.29
6423;BME280;3244;42.708;23.288;2023-05-12T03:48:12;95340.06;;;8.26;91.18
6423;BME280;3244;42.708;23.288;2023-05-12T03:50:38;95321.78;;;8.13;92.08
6423;BME280;3244;42.708;23.288;2023-05-12T03:53:05;95337.50;;;8.28;91.07
6423;BME280;3244;42.708;23.288;2023-05-12T03:55:32;95339.94;;;8.35;91.61
6423;BME280;3244;42.708;23.288;2023-05-12T03:57:58;95333.22;;;8.33;91.80
6423;BME280;3244;42.708;23.288;2023-05-12T04:00:26;95338.03;;;8.45;91.73
6423;BME280;3244;42.708;23.288;2023-05-12T04:02:53;95338.00;;;8.46;91.16
6423;BME280;3244;42.708;23.288;2023-05-12T04:05:20;95332.13;;;8.44;90.99
6423;BME280;3244;42.708;23.288;2023-05-12T04:07:46;95343.66;;;8.59;90.19
6423;BME280;3244;42.708;23.288;2023-05-12T04:10:13;95351.19;;;8.62;90.22
6423;BME280;3244;42.708;23.288;2023-05-12T04:12:40;95341.84;;;8.64;89.76
6423;BME280;3244;42.708;23.288;2023-05-12T04:15:07;95351.22;;;8.61;89.54
6423;BME280;3244;42.708;23.288;2023-05-12T04:17:35;95354.50;;;8.66;89.28
6423;BME280;3244;42.708;23.288;2023-05-12T04:20:02;95349.09;;;8.79;88.93
6423;BME280;3244;42.708;23.288;2023-05-12T04:22:28;95356.84;;;8.73;88.64
6423;BME280;3244;42.708;23.288;2023-05-12T04:24:55;95343.31;;;8.74;88.23
6423;BME280;3244;42.708;23.288;2023-05-12T04:27:22;95344.88;;;8.80;88.53
6423;BME280;3244;42.708;23.288;2023-05-12T04:29:49;95349.84;;;8.84;88.49
6423;BME280;3244;42.708;23.288;2023-05-12T04:32:16;95349.03;;;8.82;88.26
6423;BME280;3244;42.708;23.288;2023-05-12T04:34:44;95349.53;;;8.98;87.56
6423;BME280;3244;42.708;23.288;2023-05-12T04:37:12;95347.03;;;8.97;87.19
6423;BME280;3244;42.708;23.288;2023-05-12T04:39:38;95347.94;;;8.93;87.33
6423;BME280;3244;42.708;23.288;2023-05-12T04:42:05;95354.63;;;8.97;87.28
6423;BME280;3244;42.708;23.288;2023-05-12T04:44:32;95348.88;;;8.90;87.77
6423;BME280;3244;42.708;23.288;2023-05-12T04:46:59;95354.91;;;8.84;87.30
6423;BME280;3244;42.708;23.288;2023-05-12T04:49:25;95351.56;;;8.82;88.04
6423;BME280;3244;42.708;23.288;2023-05-12T04:51:53;95347.06;;;8.95;87.69
6423;BME280;3244;42.708;23.288;2023-05-12T04:54:20;95342.16;;;8.89;87.10
6423;BME280;3244;42.708;23.288;2023-05-12T04:56:47;95360.09;;;8.78;87.74
6423;BME280;3244;42.708;23.288;2023-05-12T04:59:14;95354.78;;;8.91;87.93
6423;BME280;3244;42.708;23.288;2023-05-12T05:01:40;95348.88;;;8.90;87.78
6423;BME280;3244;42.708;23.288;2023-05-12T05:04:07;95356.16;;;9.04;88.52
6423;BME280;3244;42.708;23.288;2023-05-12T05:06:34;95354.50;;;9.03;86.93
6423;BME280;3244;42.708;23.288;2023-05-12T05:09:02;95357.06;;;9.01;87.68
6423;BME280;3244;42.708;23.288;2023-05-12T05:11:28;95357.97;;;8.99;87.39
6423;BME280;3244;42.708;23.288;2023-05-12T05:13:55;95364.63;;;9.03;87.47
6423;BME280;3244;42.708;23.288;2023-05-12T05:16:22;95352.91;;;8.97;87.34
6423;BME280;3244;42.708;23.288;2023-05-12T05:18:49;95363.44;;;9.17;87.07
6423;BME280;3244;42.708;23.288;2023-05-12T05:21:16;95360.78;;;9.22;86.95
6423;BME280;3244;42.708;23.288;2023-05-12T05:23:42;95362.41;;;9.26;86.76
6423;BME280;3244;42.708;23.288;2023-05-12T05:26:10;95359.06;;;9.24;85.85
6423;BME280;3244;42.708;23.288;2023-05-12T05:28:37;95374.75;;;9.40;85.55
6423;BME280;3244;42.708;23.288;2023-05-12T05:31:04;95382.47;;;9.35;86.25
6423;BME280;3244;42.708;23.288;2023-05-12T05:33:31;95380.75;;;9.37;85.83
6423;BME280;3244;42.708;23.288;2023-05-12T05:35:58;95373.72;;;9.47;85.65
6423;BME280;3244;42.708;23.288;2023-05-12T05:38:24;95366.94;;;9.47;85.57
6423;BME280;3244;42.708;23.288;2023-05-12T05:40:51;95372.59;;;9.59;85.15
6423;BME280;3244;42.708;23.288;2023-05-12T05:43:19;95366.41;;;9.69;85.21
6423;BME280;3244;42.708;23.288;2023-05-12T05:45:46;95364.06;;;9.63;84.98
6423;BME280;3244;42.708;23.288;2023-05-12T05:48:13;95370.06;;;9.59;84.12
6423;BME280;3244;42.708;23.288;2023-05-12T05:50:40;95361.81;;;9.50;84.35
6423;BME280;3244;42.708;23.288;2023-05-12T05:53:07;95368.53;;;9.51;84.83
6423;BME280;3244;42.708;23.288;2023-05-12T05:55:34;95368.31;;;9.61;84.83
6423;BME280;3244;42.708;23.288;2023-05-12T05:58:00;95366.41;;;9.69;84.02
6423;BME280;3244;42.708;23.288;2023-05-12T06:00:28;95369.72;;;9.72;84.22
6423;BME280;3244;42.708;23.288;2023-05-12T06:02:55;95375.00;;;9.65;83.93
6423;BME280;3244;42.708;23.288;2023-05-12T06:05:22;95367.59;;;9.55;83.74
6423;BME280;3244;42.708;23.288;2023-05-12T06:07:48;95366.47;;;9.66;84.10
6423;BME280;3244;42.708;23.288;2023-05-12T06:10:15;95374.19;;;9.63;83.51
6423;BME280;3244;42.708;23.288;2023-05-12T06:12:42;95375.00;;;9.65;83.55
6423;BME280;3244;42.708;23.288;2023-05-12T06:15:09;95384.75;;;9.80;83.30
6423;BME280;3244;42.708;23.288;2023-05-12T06:17:37;95382.72;;;9.93;83.39
6423;BME280;3244;42.708;23.288;2023-05-12T06:20:05;95382.97;;;9.83;82.84
6423;BME280;3244;42.708;23.288;2023-05-12T06:22:32;95379.59;;;9.83;83.16
6423;BME280;3244;42.708;23.288;2023-05-12T06:24:59;95387.66;;;9.99;82.71
6423;BME280;3244;42.708;23.288;2023-05-12T06:27:26;95384.53;;;9.89;82.26
6423;BME280;3244;42.708;23.288;2023-05-12T06:29:52;95388.78;;;9.88;82.67
6423;BME280;3244;42.708;23.288;2023-05-12T06:32:19;95389.69;;;9.86;82.36
6423;BME280;3244;42.708;23.288;2023-05-12T06:34:47;95392.59;;;10.03;82.18
6423;BME280;3244;42.708;23.288;2023-05-12T06:37:14;95401.09;;;10.02;81.61
6423;BME280;3244;42.708;23.288;2023-05-12T06:39:40;95391.84;;;10.00;82.14
6423;BME280;3244;42.708;23.288;2023-05-12T06:42:07;95397.13;;;9.92;81.91
6423;BME280;3244;42.708;23.288;2023-05-12T06:44:35;95399.88;;;10.15;81.42
6423;BME280;3244;42.708;23.288;2023-05-12T06:47:02;95397.28;;;10.18;80.23
6423;BME280;3244;42.708;23.288;2023-05-12T06:49:29;95395.78;;;10.11;80.36
6423;BME280;3244;42.708;23.288;2023-05-12T06:52:01;95401.66;;;10.13;80.32
6423;BME280;3244;42.708;23.288;2023-05-12T06:54:27;95404.44;;;10.04;80.38
6423;BME280;3244;42.708;23.288;2023-05-12T06:56:54;95410.84;;;10.19;79.90
6423;BME280;3244;42.708;23.288;2023-05-12T06:59:21;95400.63;;;10.20;79.41
6423;BME280;3244;42.708;23.288;2023-05-12T07:01:47;95400.47;;;10.27;79.68
6423;BME280;3244;42.708;23.288;2023-05-12T07:04:14;95398.13;;;10.50;78.86
6423;BME280;3244;42.708;23.288;2023-05-12T07:06:41;95404.44;;;10.37;78.28
6423;BME280;3244;42.708;23.288;2023-05-12T07:09:09;95402.25;;;10.23;78.06
6423;BME280;3244;42.708;23.288;2023-05-12T07:11:36;95403.34;;;10.14;78.87
6423;BME280;3244;42.708;23.288;2023-05-12T07:14:02;95403.34;;;10.14;78.78
6423;BME280;3244;42.708;23.288;2023-05-12T07:16:29;95402.22;;;10.25;79.07
6423;BME280;3244;42.708;23.288;2023-05-12T07:18:56;95405.31;;;10.36;78.37
6423;BME280;3244;42.708;23.288;2023-05-12T07:21:23;95407.16;;;10.31;78.94
6423;BME280;3244;42.708;23.288;2023-05-12T07:23:50;95406.88;;;10.40;78.66
6423;BME280;3244;42.708;23.288;2023-05-12T07:26:18;95404.25;;;10.43;77.91
6423;BME280;3244;42.708;23.288;2023-05-12T07:28:45;95401.94;;;10.35;79.46
6423;BME280;3244;42.708;23.288;2023-05-12T07:31:12;95399.88;;;10.48;79.00
6423;BME280;3244;42.708;23.288;2023-05-12T07:33:38;95399.69;;;10.55;79.31
6423;BME280;3244;42.708;23.288;2023-05-12T07:36:06;95405.88;;;10.76;79.27
6423;BME280;3244;42.708;23.288;2023-05-12T07:38:33;95406.00;;;10.72;78.63
6423;BME280;3244;42.708;23.288;2023-05-12T07:40:59;95408.38;;;10.47;79.01
6423;BME280;3244;42.708;23.288;2023-05-12T07:43:28;95412.75;;;10.42;78.78
6423;BME280;3244;42.708;23.288;2023-05-12T07:45:54;95419.06;;;10.29;78.57
6423;BME280;3244;42.708;23.288;2023-05-12T07:48:23;95419.78;;;10.34;79.34
6423;BME280;3244;42.708;23.288;2023-05-12T07:50:50;95413.53;;;10.44;78.87
6423;BME280;3244;42.708;23.288;2023-05-12T07:53:16;95417.38;;;10.28;79.07
6423;BME280;3244;42.708;23.288;2023-05-12T07:55:44;95411.97;;;10.40;79.03
6423;BME280;3244;42.708;23.288;2023-05-12T07:58:10;95409.38;;;10.72;79.05
6423;BME280;3244;42.708;23.288;2023-05-12T08:00:39;95399.34;;;10.96;77.02
6423;BME280;3244;42.708;23.288;2023-05-12T08:03:05;95398.94;;;11.37;76.07
6423;BME280;3244;42.708;23.288;2023-05-12T08:05:32;95385.66;;;11.82;74.75
6423;BME280;3244;42.708;23.288;2023-05-12T08:07:59;95399.31;;;12.29;71.80
6423;BME280;3244;42.708;23.288;2023-05-12T08:10:26;95394.97;;;12.56;71.83
6423;BME280;3244;42.708;23.288;2023-05-12T08:12:54;95404.22;;;12.58;69.67
6423;BME280;3244;42.708;23.288;2023-05-12T08:15:21;95402.16;;;12.45;70.74
6423;BME280;3244;42.708;23.288;2023-05-12T08:17:49;95406.31;;;12.71;70.34
6423;BME280;3244;42.708;23.288;2023-05-12T08:20:16;95400.13;;;13.00;68.23
6423;BME280;3244;42.708;23.288;2023-05-12T08:22:42;95400.00;;;13.26;67.20
6423;BME280;3244;42.708;23.288;2023-05-12T08:25:12;95404.66;;;13.15;66.67
6423;BME280;3244;42.708;23.288;2023-05-12T08:27:38;95405.78;;;13.08;67.84
6423;BME280;3244;42.708;23.288;2023-05-12T08:30:06;95400.81;;;13.05;67.47
6423;BME280;3244;42.708;23.288;2023-05-12T08:32:33;95397.97;;;12.89;68.52
6423;BME280;3244;42.708;23.288;2023-05-12T08:35:01;95402.25;;;12.88;67.96
6423;BME280;3244;42.708;23.288;2023-05-12T08:37:28;95409.56;;;12.98;67.92
6423;BME280;3244;42.708;23.288;2023-05-12T08:39:55;95402.75;;;12.98;67.55
6423;BME280;3244;42.708;23.288;2023-05-12T08:42:29;95411.56;;;12.89;66.75
6423;BME280;3244;42.708;23.288;2023-05-12T08:44:58;95405.69;;;13.11;66.62
6423;BME280;3244;42.708;23.288;2023-05-12T08:47:25;95402.59;;;13.03;66.49
6423;BME280;3244;42.708;23.288;2023-05-12T08:49:57;95394.31;;;12.96;66.90
6423;BME280;3244;42.708;23.288;2023-05-12T08:52:26;95395.84;;;12.78;66.74
6423;BME280;3244;42.708;23.288;2023-05-12T08:54:54;95406.19;;;12.97;66.52
6423;BME280;3244;42.708;23.288;2023-05-12T08:57:22;95407.56;;;13.06;66.08
6423;BME280;3244;42.708;23.288;2023-05-12T08:59:48;95398.47;;;13.22;65.75
6423;BME280;3244;42.708;23.288;2023-05-12T09:02:17;95399.59;;;13.13;65.62
6423;BME280;3244;42.708;23.288;2023-05-12T09:04:45;95400.69;;;13.08;65.14
6423;BME280;3244;42.708;23.288;2023-05-12T09:07:12;95400.03;;;13.03;65.07
6423;BME280;3244;42.708;23.288;2023-05-12T09:09:43;95405.97;;;13.03;65.24
6423;BME280;3244;42.708;23.288;2023-05-12T09:12:12;95390.38;;;13.11;65.35
6423;BME280;3244;42.708;23.288;2023-05-12T09:14:42;95390.03;;;13.20;64.31
6423;BME280;3244;42.708;23.288;2023-05-12T09:17:10;95394.56;;;13.12;64.76
6423;BME280;3244;42.708;23.288;2023-05-12T09:19:37;95391.94;;;12.91;64.47
6423;BME280;3244;42.708;23.288;2023-05-12T09:22:04;95373.31;;;12.89;65.18
6423;BME280;3244;42.708;23.288;2023-05-12T09:24:34;95381.69;;;13.15;64.50
6423;BME280;3244;42.708;23.288;2023-05-12T09:27:03;95375.38;;;13.25;63.70
6423;BME280;3244;42.708;23.288;2023-05-12T09:29:30;95371.63;;;13.55;62.26
6423;BME280;3244;42.708;23.288;2023-05-12T09:31:58;95375.97;;;13.53;63.03
6423;BME280;3244;42.708;23.288;2023-05-12T09:34:27;95363.44;;;13.68;62.14
6423;BME280;3244;42.708;23.288;2023-05-12T09:36:55;95375.13;;;13.53;61.60
6423;BME280;3244;42.708;23.288;2023-05-12T09:39:22;95375.03;;;13.34;62.72
6423;BME280;3244;42.708;23.288;2023-05-12T09:41:49;95373.66;;;13.47;62.31
6423;BME280;3244;42.708;23.288;2023-05-12T09:44:18;95379.28;;;13.55;61.88
6423;BME280;3244;42.708;23.288;2023-05-12T09:46:44;95380.47;;;13.47;62.79
6423;BME280;3244;42.708;23.288;2023-05-12T09:49:12;95374.66;;;13.43;62.42
6423;BME280;3244;42.708;23.288;2023-05-12T09:51:43;95363.97;;;13.55;62.90
6423;BME280;3244;42.708;23.288;2023-05-12T09:54:09;95365.13;;;14.09;61.40
6423;BME280;3244;42.708;23.288;2023-05-12T09:56:37;95372.00;;;14.27;60.54
6423;BME280;3244;42.708;23.288;2023-05-12T09:59:04;95361.78;;;14.27;60.78
6423;BME280;3244;42.708;23.288;2023-05-12T10:01:33;95371.63;;;14.57;60.17
6423;BME280;3244;42.708;23.288;2023-05-12T10:04:00;95373.47;;;14.33;60.48
6423;BME280;3244;42.708;23.288;2023-05-12T10:06:30;95365.97;;;14.10;61.10
6423;BME280;3244;42.708;23.288;2023-05-12T10:09:03;95364.22;;;14.30;61.31
6423;BME280;3244;42.708;23.288;2023-05-12T10:11:30;95365.41;;;14.81;59.49
6423;BME280;3244;42.708;23.288;2023-05-12T10:13:58;95356.66;;;14.85;58.97
6423;BME280;3244;42.708;23.288;2023-05-12T10:16:26;95356.47;;;15.09;58.05
6423;BME280;3244;42.708;23.288;2023-05-12T10:18:55;95357.66;;;14.83;57.95
6423;BME280;3244;42.708;23.288;2023-05-12T10:21:23;95358.81;;;14.94;58.02
6423;BME280;3244;42.708;23.288;2023-05-12T10:23:51;95356.47;;;15.09;57.98
6423;BME280;3244;42.708;23.288;2023-05-12T10:26:20;95369.94;;;15.48;57.48
6423;BME280;3244;42.708;23.288;2023-05-12T10:28:47;95354.50;;;15.50;56.69
6423;BME280;3244;42.708;23.288;2023-05-12T10:31:15;95353.13;;;15.79;56.01
6423;BME280;3244;42.708;23.288;2023-05-12T10:33:42;95351.06;;;16.36;55.20
6423;BME280;3244;42.708;23.288;2023-05-12T10:36:19;95340.75;;;16.70;53.39
6423;BME280;3244;42.708;23.288;2023-05-12T10:38:47;95345.19;;;16.33;53.17
6423;BME280;3244;42.708;23.288;2023-05-12T10:41:15;95342.34;;;16.55;53.21
6423;BME280;3244;42.708;23.288;2023-05-12T10:43:43;95340.41;;;16.92;51.87
6423;BME280;3244;42.708;23.288;2023-05-12T10:46:18;95338.94;;;17.04;51.72
6423;BME280;3244;42.708;23.288;2023-05-12T10:48:53;95343.06;;;16.75;51.66
6423;BME280;3244;42.708;23.288;2023-05-12T10:51:22;95337.34;;;16.85;51.65
6423;BME280;3244;42.708;23.288;2023-05-12T10:53:52;95336.88;;;16.61;51.65
6423;BME280;3244;42.708;23.288;2023-05-12T10:56:24;95334.38;;;16.28;53.43
6423;BME280;3244;42.708;23.288;2023-05-12T10:59:08;95336.25;;;16.58;52.71
6423;BME280;3244;42.708;23.288;2023-05-12T11:01:36;95329.09;;;16.63;52.08
6423;BME280;3244;42.708;23.288;2023-05-12T11:04:11;95335.06;;;16.48;52.21
6423;BME280;3244;42.708;23.288;2023-05-12T11:06:40;95332.06;;;16.73;52.67
6423;BME280;3244;42.708;23.288;2023-05-12T11:09:07;95327.56;;;17.23;52.11
6423;BME280;3244;42.708;23.288;2023-05-12T11:11:35;95321.19;;;17.30;51.08
6423;BME280;3244;42.708;23.288;2023-05-12T11:14:02;95327.88;;;17.33;51.13
6423;BME280;3244;42.708;23.288;2023-05-12T11:16:29;95340.25;;;17.26;51.45
6423;BME280;3244;42.708;23.288;2023-05-12T11:19:02;95339.75;;;16.88;51.25
6423;BME280;3244;42.708;23.288;2023-05-12T11:21:29;95333.31;;;16.15;53.15
6423;BME280;3244;42.708;23.288;2023-05-12T11:23:59;95332.38;;;16.33;53.65
6423;BME280;3244;42.708;23.288;2023-05-12T11:26:27;95343.50;;;16.50;53.08
6423;BME280;3244;42.708;23.288;2023-05-12T11:28:55;95333.19;;;16.34;53.18
6423;BME280;3244;42.708;23.288;2023-05-12T11:31:22;95343.63;;;16.64;53.11
6423;BME280;3244;42.708;23.288;2023-05-12T11:34:00;95335.72;;;16.51;52.75
6423;BME280;3244;42.708;23.288;2023-05-12T11:36:27;95335.69;;;16.36;52.23
6423;BME280;3244;42.708;23.288;2023-05-12T11:38:54;95346.63;;;16.39;52.77
6423;BME280;3244;42.708;23.288;2023-05-12T11:41:22;95347.25;;;16.10;53.14
6423;BME280;3244;42.708;23.288;2023-05-12T11:43:50;95332.16;;;16.05;52.96
6423;BME280;3244;42.708;23.288;2023-05-12T11:46:24;95335.16;;;15.96;53.39
6423;BME280;3244;42.708;23.288;2023-05-12T11:48:55;95345.25;;;15.99;53.97
6423;BME280;3244;42.708;23.288;2023-05-12T11:51:22;95329.72;;;16.02;53.05
6423;BME280;3244;42.708;23.288;2023-05-12T11:53:51;95339.06;;;16.03;52.35
6423;BME280;3244;42.708;23.288;2023-05-12T11:56:18;95334.63;;;15.89;51.92
6423;BME280;3244;42.708;23.288;2023-05-12T11:58:55;95332.91;;;16.07;51.22
6423;BME280;3244;42.708;23.288;2023-05-12T12:01:22;95326.50;;;15.98;50.56
6423;BME280;3244;42.708;23.288;2023-05-12T12:03:50;95334.28;;;16.13;51.17
6423;BME280;3244;42.708;23.288;2023-05-12T12:06:18;95332.91;;;16.07;51.73
6423;BME280;3244;42.708;23.288;2023-05-12T12:08:52;95327.88;;;16.21;51.80
6423;BME280;3244;42.708;23.288;2023-05-12T12:11:19;95322.84;;;16.36;51.71
6423;BME280;3244;42.708;23.288;2023-05-12T12:13:47;95335.06;;;16.48;51.48
6423;BME280;3244;42.708;23.288;2023-05-12T12:16:18;95333.31;;;16.48;51.58
6423;BME280;3244;42.708;23.288;2023-05-12T12:18:44;95326.78;;;16.58;51.43
6423;BME280;3244;42.708;23.288;2023-05-12T12:21:11;95342.34;;;16.55;51.33
6423;BME280;3244;42.708;23.288;2023-05-12T12:23:38;95344.47;;;16.31;51.62
6423;BME280;3244;42.708;23.288;2023-05-12T12:26:04;95353.66;;;16.18;52.79
6423;BME280;3244;42.708;23.288;2023-05-12T12:28:32;95348.75;;;15.81;52.81
6423;BME280;3244;42.708;23.288;2023-05-12T12:30:59;95345.97;;;15.49;53.53
6423;BME280;3244;42.708;23.288;2023-05-12T12:33:27;95335.13;;;15.44;53.96
6423;BME280;3244;42.708;23.288;2023-05-12T12:35:54;95342.41;;;15.71;53.12
6423;BME280;3244;42.708;23.288;2023-05-12T12:38:21;95341.78;;;15.65;53.26
6423;BME280;3244;42.708;23.288;2023-05-12T12:40:47;95333.97;;;15.69;53.23
6423;BME280;3244;42.708;23.288;2023-05-12T12:43:14;95342.38;;;15.88;53.51
6423;BME280;3244;42.708;23.288;2023-05-12T12:45:41;95336.28;;;16.08;52.86
6423;BME280;3244;42.708;23.288;2023-05-12T12:48:07;95339.22;;;16.00;52.54
6423;BME280;3244;42.708;23.288;2023-05-12T12:50:35;95335.31;;;15.76;52.99
6423;BME280;3244;42.708;23.288;2023-05-12T12:53:03;95330.53;;;15.51;53.33
6423;BME280;3244;42.708;23.288;2023-05-12T12:55:30;95330.16;;;15.41;53.89
6423;BME280;3244;42.708;23.288;2023-05-12T12:57:57;95327.50;;;15.79;54.00
6423;BME280;3244;42.708;23.288;2023-05-12T13:00:24;95332.25;;;16.19;52.04
6423;BME280;3244;42.708;23.288;2023-05-12T13:02:51;95338.84;;;16.08;52.05
6423;BME280;3244;42.708;23.288;2023-05-12T13:05:18;95335.88;;;15.46;52.60
6423;BME280;3244;42.708;23.288;2023-05-12T13:07:46;95316.50;;;15.23;53.59
6423;BME280;3244;42.708;23.288;2023-05-12T13:10:12;95324.81;;;15.46;53.86
6423;BME280;3244;42.708;23.288;2023-05-12T13:12:40;95319.31;;;15.53;53.71
6423;BME280;3244;42.708;23.288;2023-05-12T13:15:08;95318.88;;;15.62;53.03
6423;BME280;3244;42.708;23.288;2023-05-12T13:17:34;95308.78;;;15.77;52.48